Time;durP1;ratioP1;P1;durP2;ratioP2;P2;SDS_P1;SDS_P2;PMS_P1;PMS_P2;Temp;Humidity;BMP_temperature;BMP_pressure;BME280_temperature;BME280_humidity;BME280_pressure;Samples;Min_cycle;Max_cycle;Signal;HPM_P1;HPM_P2
2023/10/11 00:00:44;;;;;;;13.52;4.60;;;16.40;99.90;;;;;;5029440;28;20021;-72
2023/10/11 00:05:53;;;;;;;9.98;4.68;;;16.40;99.90;;;;;;5045102;28;20033;-70
2023/10/11 00:08:19;;;;;;;17.17;5.07;;;16.40;99.90;;;;;;5029913;28;20538;-72
2023/10/11 00:10:53;;;;;;;14.45;5.10;;;16.30;99.90;;;;;;5028532;28;20060;-71
2023/10/11 00:13:20;;;;;;;15.23;4.97;;;16.30;99.90;;;;;;5048308;28;20029;-72
2023/10/11 00:15:50;;;;;;;11.02;5.18;;;16.30;99.90;;;;;;5028830;28;20037;-71
2023/10/11 00:18:26;;;;;;;17.20;6.15;;;16.40;99.90;;;;;;5047915;28;20029;-72
2023/10/11 00:20:52;;;;;;;14.18;5.43;;;16.40;99.90;;;;;;5028804;28;20489;-72
2023/10/11 00:23:25;;;;;;;17.92;5.75;;;16.30;99.90;;;;;;5047878;28;20060;-71
2023/10/11 00:26:00;;;;;;;19.63;6.15;;;16.30;99.90;;;;;;5047008;28;20040;-71
2023/10/11 00:28:26;;;;;;;18.15;6.50;;;16.30;99.90;;;;;;5029439;28;20575;-71
2023/10/11 00:30:59;;;;;;;17.77;6.10;;;16.40;99.90;;;;;;5047014;28;20477;-72
2023/10/11 00:33:24;;;;;;;18.48;5.82;;;16.40;99.90;;;;;;5047153;28;20400;-71
2023/10/11 00:35:51;;;;;;;17.95;5.32;;;16.40;99.90;;;;;;5046585;28;20040;-71
2023/10/11 00:38:27;;;;;;;23.08;5.47;;;16.40;99.90;;;;;;5047737;28;20025;-71
2023/10/11 00:43:47;;;;;;;15.98;6.10;;;16.40;99.90;;;;;;5043285;28;20087;-71
2023/10/11 00:46:14;;;;;;;18.42;6.18;;;16.40;99.90;;;;;;5029192;28;20087;-71
2023/10/11 00:48:53;;;;;;;18.00;6.30;;;16.40;99.90;;;;;;5028699;28;20024;-71
2023/10/11 00:51:26;;;;;;;20.67;6.00;;;16.40;99.90;;;;;;5047028;28;20068;-72
2023/10/11 00:53:52;;;;;;;18.92;6.32;;;16.40;99.90;;;;;;5046326;28;20259;-72
2023/10/11 00:56:20;;;;;;;16.08;5.78;;;16.40;99.90;;;;;;5047185;28;20036;-71
2023/10/11 00:58:48;;;;;;;17.95;5.85;;;16.30;99.90;;;;;;5045829;28;20090;-71
2023/10/11 01:01:14;;;;;;;16.08;6.35;;;16.40;99.90;;;;;;5046601;28;20041;-72
2023/10/11 01:03:41;;;;;;;17.27;6.97;;;16.40;99.90;;;;;;5045877;28;20125;-71
2023/10/11 01:06:10;;;;;;;14.88;5.20;;;16.40;99.90;;;;;;5046997;28;20114;-71
2023/10/11 01:08:39;;;;;;;17.55;6.05;;;16.40;99.90;;;;;;5041800;28;20029;-73
2023/10/11 01:11:13;;;;;;;20.17;5.63;;;16.30;99.90;;;;;;5024749;28;20509;-71
2023/10/11 01:13:42;;;;;;;16.23;5.22;;;16.30;99.90;;;;;;5042712;28;20104;-72
2023/10/11 01:16:11;;;;;;;13.63;5.22;;;16.30;99.90;;;;;;5046598;28;20533;-73
2023/10/11 01:18:38;;;;;;;10.57;4.47;;;16.30;99.90;;;;;;5046037;28;20029;-71
2023/10/11 01:21:04;;;;;;;13.15;4.93;;;16.30;99.90;;;;;;5024413;28;20033;-72
2023/10/11 01:23:34;;;;;;;22.00;6.15;;;16.30;99.90;;;;;;5027653;28;20037;-71
2023/10/11 01:26:06;;;;;;;22.35;6.78;;;16.30;99.90;;;;;;5028542;28;20033;-71
2023/10/11 01:28:36;;;;;;;14.25;5.15;;;16.30;99.90;;;;;;5023676;28;20037;-71
2023/10/11 01:31:08;;;;;;;22.85;7.13;;;16.20;99.90;;;;;;5045934;28;20032;-71
2023/10/11 01:33:35;;;;;;;12.43;5.10;;;16.20;99.90;;;;;;5027175;28;20041;-73
2023/10/11 01:36:06;;;;;;;15.32;5.85;;;16.20;99.90;;;;;;5028202;28;20029;-71
2023/10/11 01:38:33;;;;;;;;;;;16.20;99.90;;;;;;5028207;28;20842;-71
2023/10/11 01:40:59;;;;;;;15.77;5.18;;;16.10;99.90;;;;;;5028358;28;19959;-71
2023/10/11 01:43:25;;;;;;;14.38;6.00;;;16.10;99.90;;;;;;5027844;28;20037;-71
2023/10/11 01:45:50;;;;;;;14.48;5.68;;;16.10;99.90;;;;;;5027751;28;20036;-71
2023/10/11 01:48:17;;;;;;;15.68;5.65;;;16.10;99.90;;;;;;5046116;28;20039;-71
2023/10/11 01:50:43;;;;;;;13.65;5.38;;;16.00;99.90;;;;;;5027118;28;20041;-71
2023/10/11 01:53:09;;;;;;;14.13;5.25;;;16.00;99.90;;;;;;5027480;28;20029;-70
2023/10/11 01:55:39;;;;;;;16.20;6.57;;;16.00;99.90;;;;;;5027215;28;20040;-71
2023/10/11 01:58:06;;;;;;;19.17;5.57;;;16.00;99.90;;;;;;5042709;28;20369;-71
2023/10/11 02:00:33;;;;;;;13.10;6.05;;;16.00;99.90;;;;;;5027130;28;20034;-73
2023/10/11 02:02:59;;;;;;;21.02;7.13;;;15.90;99.90;;;;;;5027731;28;20025;-71
2023/10/11 02:05:25;;;;;;;14.68;5.72;;;15.90;99.90;;;;;;5045785;28;20102;-72
2023/10/11 02:07:51;;;;;;;18.35;6.32;;;15.90;99.90;;;;;;5045906;28;20052;-71
2023/10/11 02:10:28;;;;;;;13.93;5.97;;;15.80;99.90;;;;;;5045923;28;20397;-71
2023/10/11 02:12:57;;;;;;;14.32;6.28;;;15.80;99.90;;;;;;5044933;28;20181;-71
2023/10/11 02:15:34;;;;;;;19.92;6.18;;;15.80;99.90;;;;;;5045310;28;20044;-71
2023/10/11 02:18:07;;;;;;;17.65;6.40;;;15.80;99.90;;;;;;5023886;28;20405;-71
2023/10/11 02:20:32;;;;;;;16.50;6.25;;;15.80;99.90;;;;;;5027010;28;20672;-73
2023/10/11 02:22:59;;;;;;;16.13;7.07;;;15.70;99.90;;;;;;5027859;28;20114;-72
2023/10/11 02:25:25;;;;;;;16.38;6.15;;;15.70;99.90;;;;;;5027195;28;20057;-71
2023/10/11 02:27:55;;;;;;;19.25;6.60;;;15.70;99.90;;;;;;5026869;28;20130;-71
2023/10/11 02:30:25;;;;;;;14.80;5.97;;;15.70;99.90;;;;;;5027710;28;20076;-71
2023/10/11 02:32:52;;;;;;;20.08;6.30;;;15.70;99.90;;;;;;5026260;28;20759;-70
2023/10/11 02:35:19;;;;;;;16.58;5.82;;;15.70;99.90;;;;;;5027703;28;20524;-72
2023/10/11 02:37:48;;;;;;;18.52;6.97;;;15.70;99.90;;;;;;5044110;28;20044;-71
2023/10/11 02:40:16;;;;;;;21.45;6.40;;;15.60;99.90;;;;;;5027451;28;20441;-72
2023/10/11 02:42:49;;;;;;;16.33;6.20;;;15.60;99.90;;;;;;5026330;28;20033;-71
2023/10/11 02:45:19;;;;;;;17.80;7.03;;;15.60;99.90;;;;;;5027143;28;20033;-73
2023/10/11 02:47:45;;;;;;;21.85;6.93;;;15.60;99.90;;;;;;5026531;28;20397;-72
2023/10/11 02:50:11;;;;;;;25.98;6.40;;;15.60;99.90;;;;;;5027683;28;20041;-72
2023/10/11 02:52:37;;;;;;;14.43;6.22;;;15.60;99.90;;;;;;5043812;28;20029;-72
2023/10/11 02:57:44;;;;;;;19.40;6.72;;;15.60;99.90;;;;;;5044231;28;20033;-71
2023/10/11 03:00:23;;;;;;;13.07;5.13;;;15.50;99.90;;;;;;5045499;28;20036;-72
2023/10/11 03:02:54;;;;;;;14.02;5.50;;;15.50;99.90;;;;;;5044368;28;20183;-72
2023/10/11 03:05:20;;;;;;;14.45;5.93;;;15.50;99.90;;;;;;5048001;28;20669;-72
2023/10/11 03:07:46;;;;;;;16.00;5.25;;;15.50;99.90;;;;;;5029850;28;20037;-71
2023/10/11 03:10:13;;;;;;;15.48;5.68;;;15.50;99.90;;;;;;5045423;28;20040;-72
2023/10/11 03:12:39;;;;;;;14.93;5.97;;;15.50;99.90;;;;;;5052406;28;20037;-71
2023/10/11 03:15:11;;;;;;;13.38;4.93;;;15.40;99.90;;;;;;5051888;28;20048;-72
2023/10/11 03:17:41;;;;;;;16.25;5.53;;;15.50;99.90;;;;;;5047610;28;20040;-73
2023/10/11 03:20:08;;;;;;;9.30;4.30;;;15.40;99.90;;;;;;5031094;28;20037;-71
2023/10/11 03:22:35;;;;;;;14.07;5.60;;;15.40;99.90;;;;;;5029703;28;20040;-72
2023/10/11 03:25:12;;;;;;;18.75;5.97;;;15.40;99.90;;;;;;5034560;28;20033;-73
2023/10/11 03:27:45;;;;;;;15.93;5.60;;;15.40;99.90;;;;;;5050255;28;20043;-72
2023/10/11 03:30:13;;;;;;;15.75;5.30;;;15.30;99.90;;;;;;5048789;28;20091;-72
2023/10/11 03:32:41;;;;;;;15.65;6.85;;;15.40;99.90;;;;;;5047930;28;20510;-71
2023/10/11 03:35:15;;;;;;;12.32;5.03;;;15.40;99.90;;;;;;5048659;28;20569;-71
2023/10/11 03:37:57;;;;;;;14.43;5.25;;;15.40;99.90;;;;;;5047901;28;20112;-72
2023/10/11 03:40:34;;;;;;;13.38;5.22;;;15.40;99.90;;;;;;5049042;28;20037;-73
2023/10/11 03:43:11;;;;;;;15.68;4.95;;;15.40;99.90;;;;;;5045057;28;20501;-72
2023/10/11 03:45:39;;;;;;;12.05;4.78;;;15.40;99.90;;;;;;5047123;28;20064;-71
2023/10/11 03:48:09;;;;;;;11.88;5.43;;;15.40;99.90;;;;;;5030317;28;20483;-70
2023/10/11 03:50:37;;;;;;;15.30;5.25;;;15.40;99.90;;;;;;5047260;28;20090;-70
2023/10/11 03:53:10;;;;;;;10.88;4.78;;;15.40;99.90;;;;;;5030120;28;20417;-72
2023/10/11 03:55:45;;;;;;;10.88;4.63;;;15.40;99.90;;;;;;5046866;28;20029;-72
2023/10/11 03:58:12;;;;;;;13.30;5.10;;;15.40;99.90;;;;;;5030331;28;20051;-73
2023/10/11 04:00:47;;;;;;;13.27;5.28;;;15.40;99.90;;;;;;5029052;28;20028;-71
2023/10/11 04:03:14;;;;;;;17.42;5.95;;;15.40;99.90;;;;;;5047942;28;20156;-71
2023/10/11 04:05:40;;;;;;;11.98;5.97;;;15.40;99.90;;;;;;5028501;28;20209;-72
2023/10/11 04:08:11;;;;;;;12.52;5.45;;;15.40;99.90;;;;;;5029960;28;20693;-72
2023/10/11 04:10:39;;;;;;;13.10;5.72;;;15.40;99.90;;;;;;5049570;28;20048;-72
2023/10/11 04:13:08;;;;;;;10.48;4.72;;;15.50;99.90;;;;;;5056507;28;20032;-70
2023/10/11 04:15:34;;;;;;;11.93;4.80;;;15.50;99.90;;;;;;5027817;28;20025;-71
2023/10/11 04:18:05;;;;;;;16.35;6.25;;;15.40;99.90;;;;;;5047684;28;20037;-72
2023/10/11 04:20:33;;;;;;;14.77;5.18;;;15.50;99.90;;;;;;5028999;28;20571;-72
2023/10/11 04:23:10;;;;;;;12.77;5.32;;;15.40;99.90;;;;;;5029452;28;20036;-71
2023/10/11 04:25:38;;;;;;;11.30;4.95;;;15.50;99.90;;;;;;5046630;28;20036;-72
2023/10/11 04:28:05;;;;;;;13.90;5.57;;;15.50;99.90;;;;;;5030153;28;20489;-72
2023/10/11 04:30:44;;;;;;;12.50;6.05;;;15.50;99.90;;;;;;5047098;28;20032;-73
2023/10/11 04:33:20;;;;;;;11.02;5.20;;;15.50;99.90;;;;;;5030116;28;20037;-71
2023/10/11 04:35:55;;;;;;;18.65;5.40;;;15.50;99.90;;;;;;5029930;28;20056;-71
2023/10/11 04:38:21;;;;;;;13.27;5.78;;;15.50;99.90;;;;;;5049514;28;20040;-72
2023/10/11 04:40:49;;;;;;;17.60;5.85;;;15.60;99.90;;;;;;5047469;28;20041;-72
2023/10/11 04:43:20;;;;;;;19.30;5.72;;;15.60;99.90;;;;;;5034442;28;20040;-72
2023/10/11 04:45:48;;;;;;;9.95;5.13;;;15.60;99.90;;;;;;5028152;28;20048;-71
2023/10/11 04:48:15;;;;;;;17.77;5.45;;;15.60;99.90;;;;;;5047035;28;20046;-72
2023/10/11 04:50:49;;;;;;;12.95;5.20;;;15.60;99.90;;;;;;5028038;28;20505;-72
2023/10/11 04:53:18;;;;;;;17.85;6.72;;;15.60;99.90;;;;;;5046790;28;20037;-72
2023/10/11 04:55:59;;;;;;;14.95;5.85;;;15.60;99.90;;;;;;5028177;28;20049;-72
2023/10/11 04:58:50;;;;;;;13.38;5.65;;;15.60;99.90;;;;;;5043207;28;20087;-72
2023/10/11 05:01:22;;;;;;;14.65;6.82;;;15.60;99.90;;;;;;5019683;28;20040;-72
2023/10/11 05:03:59;;;;;;;15.40;6.68;;;15.60;99.90;;;;;;5020063;28;20057;-72
2023/10/11 05:06:31;;;;;;;15.80;6.32;;;15.60;99.90;;;;;;5038950;28;20582;-72
2023/10/11 05:09:13;;;;;;;16.30;5.88;;;15.60;99.90;;;;;;5031089;28;20045;-72
2023/10/11 05:11:44;;;;;;;16.98;7.70;;;15.60;99.90;;;;;;5029877;28;20033;-71
2023/10/11 05:17:16;;;;;;;21.40;6.78;;;15.60;99.90;;;;;;5043848;28;20440;-70
2023/10/11 05:19:55;;;;;;;17.35;6.38;;;15.60;99.90;;;;;;5032803;28;20033;-72
2023/10/11 05:27:38;;;;;;;19.08;6.80;;;15.70;99.90;;;;;;5041787;28;20122;-72
2023/10/11 05:32:50;;;;;;;16.58;6.68;;;15.70;99.90;;;;;;5045615;28;20132;-72
2023/10/11 05:35:43;;;;;;;19.38;7.10;;;15.70;99.90;;;;;;5027345;28;20064;-71
2023/10/11 05:51:48;;;;;;;18.42;5.90;;;15.70;99.90;;;;;;5044069;28;20075;-72
2023/10/11 05:54:15;;;;;;;17.58;7.03;;;15.70;99.90;;;;;;5049784;28;20619;-71
2023/10/11 05:56:47;;;;;;;18.70;6.55;;;15.70;99.90;;;;;;5036493;28;20037;-71
2023/10/11 05:59:14;;;;;;;17.55;6.85;;;15.70;99.90;;;;;;5047249;28;20037;-70
2023/10/11 06:01:48;;;;;;;15.43;6.05;;;15.80;99.90;;;;;;5045037;28;20425;-71
2023/10/11 06:04:16;;;;;;;15.70;6.50;;;15.70;99.90;;;;;;5037963;28;20033;-70
2023/10/11 06:06:45;;;;;;;17.73;7.50;;;15.80;99.90;;;;;;5038264;28;20857;-70
2023/10/11 06:09:17;;;;;;;26.95;7.78;;;15.70;99.90;;;;;;5045773;28;20041;-71
2023/10/11 06:11:50;;;;;;;16.48;7.47;;;15.70;99.90;;;;;;5032528;28;20074;-71
2023/10/11 06:14:19;;;;;;;21.00;6.88;;;15.80;99.90;;;;;;5045082;28;20040;-71
2023/10/11 06:16:49;;;;;;;16.00;6.60;;;15.80;99.90;;;;;;5037338;28;20087;-70
2023/10/11 06:19:25;;;;;;;;;;;15.70;99.90;;;;;;5046161;28;20041;-71
2023/10/11 06:22:10;;;;;;;19.42;6.20;;;15.80;99.90;;;;;;5044362;28;19959;-71
2023/10/11 06:24:36;;;;;;;23.88;8.18;;;15.80;99.90;;;;;;5042443;28;20040;-71
2023/10/11 06:29:37;;;;;;;18.77;6.88;;;15.90;99.90;;;;;;5044520;28;20041;-71
2023/10/11 06:32:10;;;;;;;20.80;7.78;;;15.90;99.90;;;;;;5037909;28;20087;-70
2023/10/11 06:34:37;;;;;;;21.50;8.40;;;16.00;99.90;;;;;;5035951;28;20033;-70
2023/10/11 06:37:02;;;;;;;20.63;7.45;;;16.00;99.90;;;;;;5048249;28;20032;-70
2023/10/11 06:42:12;;;;;;;16.83;5.95;;;16.00;99.90;;;;;;5048904;28;20037;-72
2023/10/11 06:44:42;;;;;;;16.17;6.68;;;16.00;99.90;;;;;;5037610;28;20045;-72
2023/10/11 06:47:11;;;;;;;21.60;6.45;;;16.10;99.90;;;;;;5053063;28;20124;-72
2023/10/11 06:49:40;;;;;;;15.93;6.47;;;16.10;99.90;;;;;;5038021;28;20037;-72
2023/10/11 06:52:11;;;;;;;20.48;6.18;;;16.10;99.90;;;;;;5054597;28;20815;-72
2023/10/11 06:54:39;;;;;;;18.25;6.88;;;16.10;99.90;;;;;;5044572;28;20056;-72
2023/10/11 06:57:07;;;;;;;20.80;7.55;;;16.20;99.90;;;;;;5048418;28;20041;-71
2023/10/11 06:59:33;;;;;;;16.75;7.13;;;16.20;99.90;;;;;;5049203;28;20102;-72
2023/10/11 07:01:59;;;;;;;18.55;6.55;;;16.20;99.90;;;;;;5039948;28;20048;-70
2023/10/11 07:04:36;;;;;;;18.13;7.50;;;16.20;99.90;;;;;;5036047;28;20041;-70
2023/10/11 07:07:07;;;;;;;20.67;5.97;;;16.20;99.90;;;;;;5052234;28;20041;-70
2023/10/11 07:09:39;;;;;;;15.68;6.72;;;16.30;99.90;;;;;;5037097;28;20905;-73
2023/10/11 07:14:49;;;;;;;15.68;6.20;;;16.30;99.90;;;;;;5043007;28;20401;-72
2023/10/11 07:17:20;;;;;;;18.70;6.85;;;16.30;99.90;;;;;;5049312;28;20041;-72
2023/10/11 07:19:50;;;;;;;23.20;6.75;;;16.40;99.90;;;;;;5040016;28;20094;-72
2023/10/11 07:22:18;;;;;;;15.05;6.38;;;16.40;99.90;;;;;;5051522;28;20048;-72
2023/10/11 07:24:45;;;;;;;22.20;6.47;;;16.40;99.90;;;;;;5057382;28;20033;-73
2023/10/11 07:27:26;;;;;;;25.80;7.45;;;16.50;99.90;;;;;;5043352;28;20488;-71
2023/10/11 07:29:54;;;;;;;18.40;6.10;;;16.50;99.90;;;;;;5037774;28;20572;-72
2023/10/11 07:32:23;;;;;;;13.38;5.70;;;16.60;99.90;;;;;;5046758;28;20044;-72
2023/10/11 07:34:48;;;;;;;19.98;7.68;;;16.50;99.90;;;;;;5048269;28;20064;-72
2023/10/11 07:37:18;;;;;;;23.80;6.80;;;16.60;99.90;;;;;;5040851;28;20112;-73
2023/10/11 07:39:47;;;;;;;20.58;7.18;;;16.60;99.90;;;;;;5036513;28;20037;-70
2023/10/11 07:42:18;;;;;;;20.08;7.35;;;16.60;99.90;;;;;;5046889;28;20055;-70
2023/10/11 07:44:50;;;;;;;24.08;6.63;;;16.60;99.90;;;;;;5034793;28;20596;-72
2023/10/11 07:47:16;;;;;;;26.67;7.20;;;16.60;99.90;;;;;;5032816;28;20116;-71
2023/10/11 07:49:45;;;;;;;24.33;6.30;;;16.60;99.90;;;;;;5044329;28;20029;-71
2023/10/11 07:52:19;;;;;;;24.63;7.13;;;16.60;99.90;;;;;;5035311;28;20045;-71
2023/10/11 07:54:44;;;;;;;19.23;7.80;;;16.70;99.90;;;;;;5038784;28;20105;-71
2023/10/11 07:57:14;;;;;;;21.30;6.50;;;16.70;99.90;;;;;;5051075;28;20040;-70
2023/10/11 07:59:44;;;;;;;20.00;6.85;;;16.70;99.90;;;;;;5035715;28;20039;-70
2023/10/11 08:04:57;;;;;;;22.52;6.95;;;16.80;99.90;;;;;;5046437;28;20175;-70
2023/10/11 08:07:23;;;;;;;19.50;6.85;;;16.80;99.90;;;;;;5030579;28;20044;-70
2023/10/11 08:09:52;;;;;;;16.98;6.88;;;16.80;99.90;;;;;;5048351;28;20037;-70
2023/10/11 08:12:21;;;;;;;21.77;6.47;;;16.80;99.90;;;;;;5036665;28;20036;-70
2023/10/11 08:14:47;;;;;;;23.85;7.72;;;16.90;99.90;;;;;;5037979;28;20037;-71
2023/10/11 08:17:19;;;;;;;21.80;7.57;;;16.90;99.90;;;;;;5047213;28;20086;-70
2023/10/11 08:19:46;;;;;;;25.05;6.97;;;16.80;99.90;;;;;;5038031;28;20036;-71
2023/10/11 08:22:16;;;;;;;17.63;6.47;;;16.80;99.90;;;;;;5049124;28;20036;-71
2023/10/11 08:24:46;;;;;;;21.63;7.57;;;16.80;99.90;;;;;;5047824;28;20678;-71
2023/10/11 08:27:12;;;;;;;14.85;6.43;;;16.90;99.90;;;;;;5037425;28;20037;-71
2023/10/11 08:29:42;;;;;;;21.13;7.22;;;16.80;99.90;;;;;;5036034;28;20041;-71
2023/10/11 08:32:12;;;;;;;17.90;7.53;;;16.80;99.90;;;;;;5047135;28;20044;-70
2023/10/11 08:34:38;;;;;;;21.33;7.30;;;16.80;99.90;;;;;;5044729;28;20044;-72
2023/10/11 08:37:07;;;;;;;18.90;7.53;;;16.80;99.90;;;;;;5045725;28;20048;-70
2023/10/11 08:39:36;;;;;;;21.90;6.50;;;16.80;99.90;;;;;;5029813;28;20053;-72
2023/10/11 08:42:17;;;;;;;18.45;7.88;;;16.80;99.90;;;;;;5040575;28;20037;-71
2023/10/11 08:44:47;;;;;;;21.13;7.50;;;16.80;99.90;;;;;;5037760;28;20036;-71
2023/10/11 08:47:13;;;;;;;19.00;7.38;;;16.80;99.90;;;;;;5039844;28;20032;-71
2023/10/11 08:49:41;;;;;;;28.73;8.05;;;16.80;99.90;;;;;;5036491;28;20126;-72
2023/10/11 08:52:11;;;;;;;21.15;8.02;;;16.80;99.90;;;;;;5050255;28;20124;-71
2023/10/11 08:54:38;;;;;;;21.88;7.10;;;16.80;99.90;;;;;;5042455;28;20033;-71
2023/10/11 08:57:04;;;;;;;25.60;7.32;;;16.80;99.90;;;;;;5041375;28;20369;-72
2023/10/11 08:59:31;;;;;;;22.17;7.78;;;16.90;99.90;;;;;;5050838;28;20143;-71
2023/10/11 09:02:07;;;;;;;23.40;7.78;;;16.90;99.90;;;;;;5046489;28;20076;-72
2023/10/11 09:04:35;;;;;;;25.10;8.88;;;16.90;99.90;;;;;;5041203;28;20029;-71
2023/10/11 09:07:02;;;;;;;25.27;8.25;;;16.90;99.90;;;;;;5028399;28;20123;-71
2023/10/11 09:09:41;;;;;;;29.25;9.02;;;16.90;99.90;;;;;;5037101;28;20094;-72
2023/10/11 09:12:26;;;;;;;29.10;7.65;;;17.00;99.90;;;;;;5046330;28;20049;-72
2023/10/11 09:15:04;;;;;;;23.60;7.53;;;17.00;99.90;;;;;;5033655;28;20036;-72
2023/10/11 09:17:39;;;;;;;25.02;8.25;;;17.00;99.90;;;;;;5043052;28;20044;-72
2023/10/11 09:20:40;;;;;;;25.30;8.30;;;17.00;99.90;;;;;;5050102;28;20436;-71
2023/10/11 09:23:05;;;;;;;28.23;8.05;;;17.00;99.90;;;;;;5033787;28;20124;-72
2023/10/11 09:25:41;;;;;;;22.27;7.38;;;17.00;99.90;;;;;;5045967;28;20120;-73
2023/10/11 09:28:16;;;;;;;22.17;7.18;;;17.10;99.90;;;;;;5037363;28;20083;-72
2023/10/11 09:30:44;;;;;;;25.88;8.40;;;17.20;99.90;;;;;;5040943;28;20607;-72
2023/10/11 09:33:19;;;;;;;23.48;8.38;;;17.20;99.90;;;;;;5035250;28;20070;-72
2023/10/11 09:35:49;;;;;;;26.85;7.97;;;17.20;99.90;;;;;;5040562;28;20044;-72
2023/10/11 09:38:19;;;;;;;;;;;17.10;99.90;;;;;;5048304;28;20033;-71
2023/10/11 09:40:45;;;;;;;21.20;7.03;;;17.20;99.90;;;;;;5046701;28;19951;-71
2023/10/11 09:43:16;;;;;;;26.35;8.15;;;17.20;99.90;;;;;;5049431;28;20120;-71
2023/10/11 09:45:44;;;;;;;32.90;9.68;;;17.20;99.90;;;;;;5032086;28;21319;-71
2023/10/11 09:48:12;;;;;;;21.75;7.10;;;17.20;99.90;;;;;;5049078;28;20044;-72
2023/10/11 09:50:41;;;;;;;18.73;7.72;;;17.20;99.90;;;;;;5042562;28;20136;-71
2023/10/11 09:53:11;;;;;;;26.67;8.23;;;17.20;99.90;;;;;;5031580;28;20701;-72
2023/10/11 09:55:41;;;;;;;;;;;17.20;99.90;;;;;;5033943;28;20047;-72
2023/10/11 09:58:17;;;;;;;17.80;7.10;;;17.20;99.90;;;;;;5049117;28;19916;-73
2023/10/11 10:00:58;;;;;;;21.30;7.88;;;17.30;99.90;;;;;;5030975;28;22640;-71
2023/10/11 10:03:24;;;;;;;21.77;7.45;;;17.40;99.90;;;;;;5023117;28;20412;-72
2023/10/11 10:06:18;;;;;;;23.48;8.52;;;17.40;99.90;;;;;;5040100;28;20033;-71
2023/10/11 10:08:50;;;;;;;17.90;7.53;;;17.50;99.90;;;;;;5043398;28;20105;-71
2023/10/11 10:11:19;;;;;;;23.08;6.78;;;17.60;99.90;;;;;;5031136;28;20150;-71
2023/10/11 10:14:23;;;;;;;20.92;7.45;;;17.70;99.90;;;;;;5043292;28;20052;-71
2023/10/11 10:17:15;;;;;;;20.30;7.68;;;17.80;99.90;;;;;;5038424;28;20374;-71
2023/10/11 10:19:45;;;;;;;26.98;7.07;;;17.90;99.90;;;;;;5040645;28;20040;-72
2023/10/11 10:22:31;;;;;;;28.08;8.23;;;18.00;99.90;;;;;;5044251;28;20033;-72
2023/10/11 10:25:18;;;;;;;16.10;5.85;;;18.00;99.90;;;;;;5044491;28;20041;-71
2023/10/11 10:27:52;;;;;;;17.10;6.45;;;18.10;99.90;;;;;;5046448;28;20150;-71
2023/10/11 10:30:21;;;;;;;21.33;7.43;;;18.20;99.90;;;;;;5032820;28;20052;-72
2023/10/11 10:33:19;;;;;;;12.93;5.30;;;18.30;99.90;;;;;;5039330;28;20123;-71
2023/10/11 10:35:45;;;;;;;17.25;6.28;;;18.40;99.90;;;;;;5036435;28;20041;-71
2023/10/11 10:38:11;;;;;;;21.08;6.35;;;18.60;99.90;;;;;;5048483;28;20037;-72
2023/10/11 10:40:45;;;;;;;18.48;5.53;;;18.70;99.90;;;;;;5034465;28;20091;-72
2023/10/11 10:43:23;;;;;;;17.00;6.50;;;18.70;99.90;;;;;;5038851;28;20029;-72
2023/10/11 10:45:50;;;;;;;26.75;6.30;;;18.90;99.90;;;;;;5031318;28;20045;-71
2023/10/11 10:48:23;;;;;;;17.45;5.45;;;19.00;99.90;;;;;;5045108;28;20161;-71
2023/10/11 10:51:01;;;;;;;18.30;6.00;;;19.20;99.90;;;;;;5043537;28;20459;-71
2023/10/11 10:53:53;;;;;;;11.48;3.83;;;19.50;99.90;;;;;;5037856;28;20051;-71
2023/10/11 10:56:25;;;;;;;12.85;3.65;;;19.70;99.90;;;;;;5030851;28;20025;-71
2023/10/11 10:59:26;;;;;;;9.77;3.03;;;19.80;99.90;;;;;;5044468;28;20120;-70
2023/10/11 11:01:53;;;;;;;12.20;3.47;;;19.80;99.90;;;;;;4990984;28;20029;-72
2023/10/11 11:04:24;;;;;;;12.73;3.67;;;19.70;99.90;;;;;;5036852;28;20021;-70
2023/10/11 11:06:52;;;;;;;15.38;4.22;;;19.70;99.90;;;;;;5052728;28;20024;-70
2023/10/11 11:09:19;;;;;;;15.18;4.32;;;19.70;99.90;;;;;;5036251;28;20063;-71
2023/10/11 11:11:47;;;;;;;9.15;2.78;;;19.80;99.90;;;;;;5047429;28;20075;-71
2023/10/11 11:14:15;;;;;;;9.70;2.13;;;19.70;99.90;;;;;;5035835;28;20063;-71
2023/10/11 11:16:44;;;;;;;8.57;2.00;;;19.80;99.90;;;;;;5043324;28;20042;-72
2023/10/11 11:19:16;;;;;;;14.63;2.83;;;19.80;99.90;;;;;;5048436;28;20438;-72
2023/10/11 11:21:46;;;;;;;11.55;2.40;;;19.80;99.90;;;;;;5052344;28;20067;-71
2023/10/11 11:24:18;;;;;;;11.98;2.28;;;19.90;99.90;;;;;;5032368;28;20033;-72
2023/10/11 11:26:44;;;;;;;11.23;1.83;;;19.80;99.90;;;;;;5034011;28;20033;-71
2023/10/11 11:29:14;;;;;;;8.40;1.63;;;19.80;99.90;;;;;;5040981;28;20051;-72
2023/10/11 11:32:14;;;;;;;5.03;1.50;;;19.80;99.90;;;;;;5037529;28;20035;-70
2023/10/11 11:35:02;;;;;;;7.63;2.15;;;19.90;99.90;;;;;;5047560;28;20481;-73
2023/10/11 11:37:29;;;;;;;10.48;2.17;;;19.90;99.90;;;;;;5034360;28;20044;-70
2023/10/11 11:40:17;;;;;;;11.10;1.95;;;20.00;99.90;;;;;;5051305;28;20033;-72
2023/10/11 11:42:47;;;;;;;8.07;1.80;;;20.00;99.90;;;;;;5048582;28;20029;-71
2023/10/11 11:45:14;;;;;;;8.45;2.08;;;20.00;99.90;;;;;;5036414;28;20133;-71
2023/10/11 11:47:50;;;;;;;8.10;1.55;;;20.00;99.90;;;;;;5049041;28;20024;-70
2023/10/11 11:50:20;;;;;;;3.92;1.30;;;20.00;99.90;;;;;;5038050;28;20078;-70
2023/10/11 11:52:45;;;;;;;3.13;1.17;;;20.00;99.90;;;;;;5037645;28;20039;-71
2023/10/11 11:55:11;;;;;;;7.60;1.20;;;19.90;99.90;;;;;;5047593;28;20045;-71
2023/10/11 11:57:37;;;;;;;4.15;1.33;;;19.90;99.90;;;;;;5051313;28;20025;-72
2023/10/11 12:00:20;;;;;;;4.55;1.35;;;20.00;99.90;;;;;;5040066;28;20048;-71
2023/10/11 12:02:46;;;;;;;4.82;1.23;;;19.90;99.90;;;;;;5048338;28;20051;-71
2023/10/11 12:05:11;;;;;;;3.80;1.20;;;20.00;99.90;;;;;;5039281;28;20045;-71
2023/10/11 12:07:39;;;;;;;5.95;1.83;;;20.00;99.90;;;;;;5042197;28;20040;-71
2023/10/11 12:10:23;;;;;;;7.32;1.70;;;20.00;99.90;;;;;;5051562;28;20044;-72
2023/10/11 12:12:50;;;;;;;8.90;2.53;;;20.00;99.90;;;;;;5033414;28;20064;-72
2023/10/11 12:15:17;;;;;;;9.45;2.05;;;20.00;99.90;;;;;;5036764;28;20037;-71
2023/10/11 12:17:43;;;;;;;6.38;1.58;;;19.90;99.90;;;;;;5048789;28;20107;-72
2023/10/11 12:20:12;;;;;;;10.82;2.40;;;19.90;99.90;;;;;;5048264;28;20033;-71
2023/10/11 12:22:44;;;;;;;12.07;2.90;;;19.80;99.90;;;;;;5048119;28;20123;-72
2023/10/11 12:25:13;;;;;;;6.32;2.42;;;19.80;99.90;;;;;;5041397;28;20029;-71
2023/10/11 12:27:42;;;;;;;13.63;2.25;;;19.80;99.90;;;;;;5049722;28;20036;-71
2023/10/11 12:30:33;;;;;;;9.45;2.72;;;19.80;99.90;;;;;;5041637;28;20080;-72
2023/10/11 12:32:54;;;;;;;10.20;2.38;;;19.70;99.90;;;;;;5047266;28;20045;-71
2023/10/11 12:35:23;;;;;;;10.82;3.45;;;19.70;99.90;;;;;;5035447;28;20857;-72
2023/10/11 12:37:49;;;;;;;8.07;2.35;;;19.80;99.90;;;;;;5031801;28;20033;-72
2023/10/11 12:40:22;;;;;;;10.07;2.15;;;19.70;99.90;;;;;;5045254;28;20087;-72
2023/10/11 12:42:48;;;;;;;11.15;2.50;;;19.60;99.90;;;;;;5046946;28;20078;-71
2023/10/11 12:45:17;;;;;;;13.43;2.83;;;19.60;99.90;;;;;;5038180;28;20037;-71
2023/10/11 12:47:44;;;;;;;10.88;2.80;;;19.70;99.90;;;;;;5033937;28;20037;-71
2023/10/11 12:50:09;;;;;;;12.93;3.38;;;19.60;99.90;;;;;;5051068;28;20131;-71
2023/10/11 12:52:38;;;;;;;12.23;2.85;;;19.60;99.90;;;;;;5047357;28;20123;-73
2023/10/11 12:55:07;;;;;;;12.95;2.72;;;19.60;99.90;;;;;;5048932;28;20090;-71
2023/10/11 12:57:38;;;;;;;15.02;2.75;;;19.60;99.90;;;;;;5047993;28;20041;-72
2023/10/11 13:00:15;;;;;;;10.93;3.03;;;19.60;99.90;;;;;;5049337;28;20033;-72
2023/10/11 13:02:48;;;;;;;8.57;3.65;;;19.50;99.90;;;;;;5039468;28;20640;-72
2023/10/11 13:05:15;;;;;;;13.77;3.35;;;19.50;99.90;;;;;;5036781;28;20048;-70
2023/10/11 13:07:42;;;;;;;9.60;3.33;;;19.50;99.90;;;;;;5046950;28;20032;-72
2023/10/11 13:10:07;;;;;;;12.05;3.22;;;19.50;99.90;;;;;;5041287;28;20052;-72
2023/10/11 13:12:37;;;;;;;9.85;3.47;;;19.50;99.90;;;;;;5045202;28;20037;-72
2023/10/11 13:15:08;;;;;;;7.57;3.20;;;19.60;99.90;;;;;;5052671;28;20037;-71
2023/10/11 13:17:34;;;;;;;10.63;3.88;;;19.70;99.90;;;;;;5042796;28;20047;-71
2023/10/11 13:20:08;;;;;;;12.93;3.42;;;19.80;99.90;;;;;;5039833;28;20439;-71
2023/10/11 13:22:34;;;;;;;14.15;4.00;;;19.80;99.90;;;;;;5030822;28;20032;-71
2023/10/11 13:25:02;;;;;;;12.65;3.47;;;19.90;99.90;;;;;;5044529;28;20099;-71
2023/10/11 13:27:30;;;;;;;11.73;4.15;;;19.90;99.90;;;;;;5054018;28;20072;-70
2023/10/11 13:30:01;;;;;;;11.13;3.92;;;19.90;99.90;;;;;;5045255;28;20045;-71
2023/10/11 13:32:28;;;;;;;12.23;3.97;;;19.90;99.90;;;;;;5050298;28;20045;-70
2023/10/11 13:34:54;;;;;;;11.48;3.08;;;19.90;99.90;;;;;;5037401;28;20037;-71
2023/10/11 13:37:22;;;;;;;10.23;3.60;;;19.90;99.90;;;;;;5036745;28;20033;-71
2023/10/11 13:39:47;;;;;;;15.63;4.50;;;20.00;99.90;;;;;;5030444;28;20060;-71